createdAt,value
2022-08-03T00:00:42.579Z,98325.38
2022-08-03T00:03:11.688Z,98327.63
2022-08-03T00:05:40.807Z,98325.53
2022-08-03T00:08:31.448Z,98318.06
2022-08-03T00:11:00.916Z,98326.53
2022-08-03T00:13:29.817Z,98326.72
2022-08-03T00:15:58.724Z,98324.03
2022-08-03T00:18:27.717Z,98329.16
2022-08-03T00:20:56.954Z,98325.22
2022-08-03T00:23:33.325Z,98327.91
2022-08-03T00:26:18.776Z,98332.88
2022-08-03T00:28:47.718Z,98332.44
2022-08-03T00:31:16.751Z,98344.03
2022-08-03T00:33:59.364Z,98339.84
2022-08-03T00:36:32.357Z,98328.47
2022-08-03T00:39:01.307Z,98331.38
2022-08-03T00:41:31.735Z,98335.22
2022-08-03T00:44:00.627Z,98333.97
2022-08-03T00:46:29.697Z,98335.78
2022-08-03T00:48:59.315Z,98340.09
2022-08-03T00:51:29.376Z,98334.09
2022-08-03T00:53:58.409Z,98335.91
2022-08-03T00:56:28.249Z,98334.00
2022-08-03T00:58:59.692Z,98333.94
2022-08-03T01:01:30.702Z,98337.03
2022-08-03T01:04:01.564Z,98337.44
2022-08-03T01:06:44.747Z,98343.19
2022-08-03T01:09:28.828Z,98333.66
2022-08-03T01:12:07.544Z,98334.44
2022-08-03T01:14:45.424Z,98332.34
2022-08-03T01:17:24.489Z,98333.13
2022-08-03T01:20:03.313Z,98340.91
2022-08-03T01:23:14.229Z,98340.03
2022-08-03T01:26:07.137Z,98339.19
2022-08-03T01:29:10.026Z,98341.06
2022-08-03T01:32:59.043Z,98340.22
2022-08-03T01:35:10.100Z,98344.13
2022-08-03T01:38:01.930Z,98335.44
2022-08-03T01:40:54.654Z,98334.78
2022-08-03T01:44:26.194Z,98332.09
2022-08-03T01:46:47.436Z,98332.25
2022-08-03T01:49:18.447Z,98325.78
2022-08-03T01:52:03.635Z,98338.06
2022-08-03T01:54:38.899Z,98331.81
2022-08-03T01:57:27.602Z,98327.69
2022-08-03T01:59:59.731Z,98326.41
2022-08-03T02:02:34.587Z,98324.09
2022-08-03T02:05:10.952Z,98320.31
2022-08-03T02:07:43.466Z,98323.19
2022-08-03T02:10:16.056Z,98315.34
2022-08-03T02:12:50.995Z,98320.44
2022-08-03T02:15:22.239Z,98318.78
2022-08-03T02:17:54.858Z,98322.41
2022-08-03T02:20:23.932Z,98317.63
2022-08-03T02:22:53.041Z,98317.16
2022-08-03T02:25:22.006Z,98316.06
2022-08-03T02:27:57.999Z,98320.16
2022-08-03T02:30:36.997Z,98319.50
2022-08-03T02:33:13.537Z,98319.69
2022-08-03T02:35:45.005Z,98313.50
2022-08-03T02:38:17.233Z,98316.38
2022-08-03T02:40:48.148Z,98306.84
2022-08-03T02:43:22.534Z,98319.63
2022-08-03T02:45:54.537Z,98318.78
2022-08-03T02:48:31.821Z,98332.38
2022-08-03T02:51:04.021Z,98320.97
2022-08-03T02:53:35.592Z,98322.38
2022-08-03T02:56:07.114Z,98326.47
2022-08-03T02:58:40.504Z,98321.84
2022-08-03T03:01:10.829Z,98323.06
2022-08-03T03:03:44.950Z,98323.44
2022-08-03T03:06:15.218Z,98317.59
2022-08-03T03:08:45.158Z,98322.34
2022-08-03T03:11:19.082Z,98322.00
2022-08-03T03:13:50.437Z,98320.72
2022-08-03T03:16:21.725Z,98324.78
2022-08-03T03:18:52.763Z,98320.63
2022-08-03T03:21:23.801Z,98324.69
2022-08-03T03:23:54.900Z,98326.91
2022-08-03T03:26:23.999Z,98324.59
2022-08-03T03:28:53.434Z,98331.16
2022-08-03T03:31:23.018Z,98333.53
2022-08-03T03:33:53.368Z,98331.88
2022-08-03T03:36:22.354Z,98334.09
2022-08-03T03:38:51.372Z,98329.75
2022-08-03T03:41:22.733Z,98328.94
2022-08-03T03:43:52.304Z,98333.81
2022-08-03T03:46:21.597Z,98330.03
2022-08-03T03:48:52.225Z,98336.56
2022-08-03T03:51:21.165Z,98335.06
2022-08-03T03:53:58.182Z,98341.63
2022-08-03T03:56:27.647Z,98338.47
2022-08-03T03:58:57.326Z,98347.34
2022-08-03T04:01:27.837Z,98345.03
2022-08-03T04:03:58.891Z,98338.03
2022-08-03T04:06:45.502Z,98334.88
2022-08-03T04:09:34.606Z,98343.25
2022-08-03T04:12:05.656Z,98344.09
2022-08-03T04:14:38.574Z,98338.09
2022-08-03T04:17:13.102Z,98344.47
2022-08-03T04:19:51.453Z,98342.16
2022-08-03T04:22:25.233Z,98341.13
2022-08-03T04:25:02.506Z,98346.66
2022-08-03T04:27:41.480Z,98343.97
2022-08-03T04:30:11.961Z,98354.69
2022-08-03T04:32:46.028Z,98346.47
2022-08-03T04:35:16.370Z,98351.66
2022-08-03T04:37:48.888Z,98355.53
2022-08-03T04:40:23.253Z,98344.81
2022-08-03T04:43:00.032Z,98346.13
2022-08-03T04:45:31.382Z,98353.13
2022-08-03T04:48:02.039Z,98358.47
2022-08-03T04:50:34.694Z,98361.16
2022-08-03T04:53:04.601Z,98358.13
2022-08-03T04:55:36.558Z,98363.22
2022-08-03T04:58:06.363Z,98367.38
2022-08-03T05:00:35.491Z,98364.53
2022-08-03T05:03:04.638Z,98367.84
2022-08-03T05:06:01.923Z,98363.81
2022-08-03T05:08:46.362Z,98367.59
2022-08-03T05:11:16.541Z,98367.22
2022-08-03T05:13:45.911Z,98362.78
2022-08-03T05:16:15.969Z,98369.47
2022-08-03T05:18:45.952Z,98363.41
2022-08-03T05:21:17.016Z,98365.59
2022-08-03T05:23:46.120Z,98389.31
2022-08-03T05:26:15.086Z,98387.72
2022-08-03T05:28:50.794Z,98386.63
2022-08-03T05:31:20.728Z,98387.63
2022-08-03T05:33:49.732Z,98393.16
2022-08-03T05:36:19.861Z,98396.97
2022-08-03T05:38:48.760Z,98392.94
2022-08-03T05:41:23.315Z,98391.81
2022-08-03T05:43:54.024Z,98384.75
2022-08-03T05:46:23.724Z,98390.84
2022-08-03T05:48:53.210Z,98394.69
2022-08-03T05:51:23.574Z,98386.16
2022-08-03T05:53:52.632Z,98384.19
2022-08-03T05:56:25.291Z,98377.84
2022-08-03T05:58:54.836Z,98376.97
2022-08-03T06:01:23.798Z,98375.06
2022-08-03T06:03:53.745Z,98382.41
2022-08-03T06:06:24.102Z,98386.00
2022-08-03T06:08:53.079Z,98382.25
2022-08-03T06:11:21.984Z,98385.22
2022-08-03T06:13:50.871Z,98385.94
2022-08-03T06:16:19.750Z,98381.00
2022-08-03T06:18:48.656Z,98386.06
2022-08-03T06:21:17.569Z,98374.13
2022-08-03T06:23:52.595Z,98370.06
2022-08-03T06:26:23.150Z,98374.25
2022-08-03T06:28:54.183Z,98369.72
2022-08-03T06:31:32.872Z,98365.56
2022-08-03T06:34:34.393Z,98366.78
2022-08-03T06:37:01.676Z,98362.69
2022-08-03T06:39:32.671Z,98359.13
2022-08-03T06:42:01.685Z,98356.75
2022-08-03T06:44:30.560Z,98355.88
2022-08-03T06:46:59.690Z,98355.41
2022-08-03T06:49:28.676Z,98355.53
2022-08-03T06:52:03.250Z,98351.88
2022-08-03T06:54:39.303Z,98357.09
2022-08-03T06:57:11.459Z,98353.47
2022-08-03T07:00:06.256Z,98355.09
2022-08-03T07:02:30.040Z,98360.03
2022-08-03T07:04:59.492Z,98355.19
2022-08-03T07:07:28.477Z,98348.44
2022-08-03T07:09:58.950Z,98346.44
2022-08-03T07:12:30.324Z,98353.53
2022-08-03T07:15:02.937Z,98346.41
2022-08-03T07:17:34.756Z,98350.13
2022-08-03T07:20:07.764Z,98345.44
2022-08-03T07:22:37.312Z,98337.88
2022-08-03T07:25:12.001Z,98344.78
2022-08-03T07:27:47.814Z,98339.44
2022-08-03T07:30:20.378Z,98338.38
2022-08-03T07:32:50.780Z,98337.47
2022-08-03T07:35:24.259Z,98345.88
2022-08-03T07:37:55.217Z,98341.13
2022-08-03T07:40:31.536Z,98342.50
2022-08-03T07:43:02.348Z,98335.31
2022-08-03T07:45:32.052Z,98341.75
2022-08-03T07:48:01.173Z,98338.50
2022-08-03T07:50:30.475Z,98337.09
2022-08-03T07:52:59.816Z,98336.84
2022-08-03T07:55:31.128Z,98334.53
2022-08-03T07:58:06.353Z,98331.22
2022-08-03T08:00:41.640Z,98320.19
2022-08-03T08:03:14.361Z,98331.91
2022-08-03T08:05:43.837Z,98319.19
2022-08-03T08:08:12.889Z,98320.97
2022-08-03T08:10:43.146Z,98304.72
2022-08-03T08:13:28.005Z,98314.06
2022-08-03T08:15:57.106Z,98314.31
2022-08-03T08:18:26.110Z,98301.03
2022-08-03T08:20:54.886Z,98303.00
2022-08-03T08:23:41.862Z,98303.47
2022-08-03T08:26:14.887Z,98303.72
2022-08-03T08:28:44.199Z,98301.25
2022-08-03T08:31:13.027Z,98302.03
2022-08-03T08:34:03.170Z,98296.69
2022-08-03T08:36:31.287Z,98292.69
2022-08-03T08:39:00.299Z,98293.34
2022-08-03T08:41:33.795Z,98288.66
2022-08-03T08:44:02.951Z,98295.88
2022-08-03T08:46:34.867Z,98292.25
2022-08-03T08:49:05.037Z,98290.06
2022-08-03T08:51:50.578Z,98290.31
2022-08-03T08:54:28.431Z,98293.38
2022-08-03T08:57:21.091Z,98282.28
2022-08-03T08:59:57.382Z,98279.91
2022-08-03T09:02:27.184Z,98273.50
2022-08-03T09:04:56.900Z,98276.69
2022-08-03T09:07:26.166Z,98270.53
2022-08-03T09:10:10.048Z,98271.06
2022-08-03T09:12:47.287Z,98276.91
2022-08-03T09:15:21.500Z,98266.19
2022-08-03T09:17:51.592Z,98275.00
2022-08-03T09:20:22.045Z,98263.91
2022-08-03T09:22:55.932Z,98265.47
2022-08-03T09:25:36.374Z,98259.81
2022-08-03T09:28:10.386Z,98255.13
2022-08-03T09:30:41.378Z,98257.13
2022-08-03T09:33:18.075Z,98257.63
2022-08-03T09:35:53.945Z,98251.94
2022-08-03T09:38:26.452Z,98252.28
2022-08-03T09:41:00.441Z,98249.47
2022-08-03T09:43:47.823Z,98252.47
2022-08-03T09:46:16.929Z,98246.94
2022-08-03T09:48:46.567Z,98241.97
2022-08-03T09:51:33.283Z,98254.38
2022-08-03T09:54:16.310Z,98242.69
2022-08-03T09:56:49.350Z,98253.78
2022-08-03T09:59:28.197Z,98247.03
2022-08-03T10:01:58.706Z,98255.16
2022-08-03T10:04:28.853Z,98249.13
2022-08-03T10:07:06.821Z,98246.06
2022-08-03T10:09:36.076Z,98245.03
2022-08-03T10:12:13.029Z,98239.09
2022-08-03T10:14:45.732Z,98235.16
2022-08-03T10:17:15.455Z,98230.16
2022-08-03T10:19:44.721Z,98226.81
2022-08-03T10:22:17.438Z,98228.94
2022-08-03T10:24:53.609Z,98229.28
2022-08-03T10:27:25.411Z,98224.25
2022-08-03T10:29:59.714Z,98226.41
2022-08-03T10:32:32.111Z,98224.63
2022-08-03T10:35:19.619Z,98220.41
2022-08-03T10:37:58.667Z,98210.84
2022-08-03T10:40:49.433Z,98220.41
2022-08-03T10:43:22.927Z,98205.22
2022-08-03T10:45:54.351Z,98207.22
2022-08-03T10:48:24.419Z,98200.63
2022-08-03T10:50:54.071Z,98203.16
2022-08-03T10:53:37.564Z,98201.28
2022-08-03T10:56:35.481Z,98195.13
2022-08-03T10:59:27.535Z,98189.09
2022-08-03T11:02:01.026Z,98187.25
2022-08-03T11:04:30.990Z,98180.28
2022-08-03T11:07:22.673Z,98174.16
2022-08-03T11:09:53.363Z,98187.25
2022-08-03T11:12:31.445Z,98187.38
2022-08-03T11:15:03.271Z,98178.00
2022-08-03T11:17:46.175Z,98181.22
2022-08-03T11:20:46.544Z,98169.50
2022-08-03T11:23:16.610Z,98163.19
2022-08-03T11:26:12.918Z,98161.34
2022-08-03T11:28:42.852Z,98166.72
2022-08-03T11:31:58.134Z,98161.47
2022-08-03T11:34:28.690Z,98153.41
2022-08-03T11:37:27.550Z,98152.84
2022-08-03T11:39:59.272Z,98146.56
2022-08-03T11:42:48.491Z,98147.94
2022-08-03T11:45:19.858Z,98137.38
2022-08-03T11:47:51.574Z,98141.09
2022-08-03T11:50:24.060Z,98134.94
2022-08-03T11:52:53.650Z,98134.94
2022-08-03T11:55:22.851Z,98130.63
2022-08-03T11:59:01.335Z,98138.41
2022-08-03T12:00:41.470Z,98131.34
2022-08-03T12:03:13.773Z,98130.66
2022-08-03T12:05:52.150Z,98141.44
2022-08-03T12:08:35.530Z,98129.44
2022-08-03T12:11:07.209Z,98123.44
2022-08-03T12:14:45.023Z,98112.56
2022-08-03T12:16:31.337Z,98119.41
2022-08-03T12:19:02.465Z,98124.94
2022-08-03T12:21:33.707Z,98120.00
2022-08-03T12:24:06.654Z,98115.53
2022-08-03T12:26:58.503Z,98112.13
2022-08-03T12:29:29.247Z,98111.03
2022-08-03T12:31:58.719Z,98116.25
2022-08-03T12:34:47.677Z,98107.88
2022-08-03T12:37:22.740Z,98109.28
2022-08-03T12:40:02.382Z,98107.59
2022-08-03T12:42:34.985Z,98101.03
2022-08-03T12:45:19.562Z,98104.81
2022-08-03T12:47:52.818Z,98107.84
2022-08-03T12:50:31.470Z,98093.66
2022-08-03T12:53:04.713Z,98098.06
2022-08-03T12:55:57.802Z,98096.47
2022-08-03T12:58:34.939Z,98090.41
2022-08-03T13:01:09.830Z,98086.44
2022-08-03T13:03:49.527Z,98082.69
2022-08-03T13:06:21.438Z,98080.88
2022-08-03T13:09:03.161Z,98082.22
2022-08-03T13:11:57.966Z,98074.84
2022-08-03T13:14:23.720Z,98069.63
2022-08-03T13:16:52.987Z,98082.34
2022-08-03T13:19:24.814Z,98069.13
2022-08-03T13:22:04.191Z,98064.75
2022-08-03T13:24:35.378Z,98069.13
2022-08-03T13:28:09.862Z,98081.31
2022-08-03T13:29:56.294Z,98071.97
2022-08-03T13:32:25.832Z,98068.38
2022-08-03T13:34:54.929Z,98066.66
2022-08-03T13:37:24.593Z,98066.00
2022-08-03T13:39:58.697Z,98070.50
2022-08-03T13:42:31.702Z,98052.59
2022-08-03T13:45:01.643Z,98054.94
2022-08-03T13:47:31.033Z,98041.38
2022-08-03T13:50:02.869Z,98038.97
2022-08-03T13:52:35.130Z,98049.78
2022-08-03T13:55:07.336Z,98038.56
2022-08-03T13:58:03.181Z,98040.25
2022-08-03T14:00:28.452Z,98029.25
2022-08-03T14:03:13.794Z,98038.13
2022-08-03T14:05:44.426Z,98027.19
2022-08-03T14:08:14.218Z,98027.97
2022-08-03T14:10:48.941Z,98024.47
2022-08-03T14:13:18.410Z,98021.34
2022-08-03T14:15:49.842Z,98020.97
2022-08-03T14:18:27.665Z,98015.81
2022-08-03T14:21:04.824Z,98016.31
2022-08-03T14:23:35.600Z,98018.22
2022-08-03T14:26:06.304Z,98020.16
2022-08-03T14:28:35.891Z,98016.56
2022-08-03T14:31:08.291Z,98015.88
2022-08-03T14:33:54.624Z,98015.09
2022-08-03T14:36:24.522Z,98013.75
2022-08-03T14:38:56.113Z,97999.56
2022-08-03T14:41:29.590Z,97997.19
2022-08-03T14:44:01.394Z,98005.94
2022-08-03T14:46:33.304Z,98003.47
2022-08-03T14:50:36.455Z,98006.03
2022-08-03T14:51:53.783Z,98009.25
2022-08-03T14:54:23.715Z,98008.13
2022-08-03T14:56:54.055Z,98000.19
2022-08-03T14:59:22.882Z,97989.34
2022-08-03T15:02:05.547Z,97984.91
2022-08-03T15:04:36.546Z,97994.75
2022-08-03T15:07:09.301Z,97988.41
2022-08-03T15:09:38.745Z,97987.50
2022-08-03T15:12:09.919Z,97982.53
2022-08-03T15:14:38.933Z,97981.50
2022-08-03T15:17:08.701Z,97980.31
2022-08-03T15:20:01.078Z,97981.91
2022-08-03T15:22:34.345Z,97982.72
2022-08-03T15:25:04.285Z,97973.03
2022-08-03T15:28:03.662Z,97971.47
2022-08-03T15:30:36.820Z,97972.09
2022-08-03T15:33:06.553Z,97966.53
2022-08-03T15:35:36.226Z,97962.28
2022-08-03T15:38:09.221Z,97967.44
2022-08-03T15:40:38.625Z,97972.66
2022-08-03T15:43:09.844Z,97976.25
2022-08-03T15:45:40.557Z,97972.22
2022-08-03T15:48:10.945Z,97969.31
2022-08-03T15:50:40.043Z,97971.03
2022-08-03T15:53:08.947Z,97968.16
2022-08-03T15:55:37.894Z,97962.13
2022-08-03T15:59:10.685Z,97972.47
2022-08-03T16:00:58.339Z,97963.19
2022-08-03T16:03:28.732Z,97961.81
2022-08-03T16:05:57.834Z,97949.78
2022-08-03T16:08:26.750Z,97947.31
2022-08-03T16:10:58.251Z,97947.72
2022-08-03T16:14:13.431Z,97949.84
2022-08-03T16:16:18.793Z,97944.03
2022-08-03T16:18:47.829Z,97945.69
2022-08-03T16:21:19.992Z,97951.06
2022-08-03T16:23:53.871Z,97946.03
2022-08-03T16:26:23.043Z,97941.78
2022-08-03T16:28:58.610Z,97944.91
2022-08-03T16:31:31.818Z,97941.88
2022-08-03T16:34:01.006Z,97936.38
2022-08-03T16:36:34.966Z,97936.06
2022-08-03T16:39:04.258Z,97938.03
2022-08-03T16:42:00.586Z,97930.72
2022-08-03T16:44:25.916Z,97934.06
2022-08-03T16:46:56.485Z,97925.28
2022-08-03T16:49:54.966Z,97929.25
2022-08-03T16:52:16.849Z,97928.81
2022-08-03T16:54:52.543Z,97931.16
2022-08-03T16:57:55.936Z,97929.75
2022-08-03T17:00:32.893Z,97927.97
2022-08-03T17:03:18.656Z,97933.81
2022-08-03T17:05:50.885Z,97931.22
2022-08-03T17:08:26.969Z,97926.13
2022-08-03T17:10:57.418Z,97942.56
2022-08-03T17:13:38.963Z,97941.41
2022-08-03T17:16:15.122Z,97944.75
2022-08-03T17:18:53.639Z,97943.94
2022-08-03T17:21:29.307Z,97941.13
2022-08-03T17:24:12.348Z,97946.69
2022-08-03T17:26:46.891Z,97953.41
2022-08-03T17:29:25.085Z,97953.88
2022-08-03T17:31:56.487Z,97949.13
2022-08-03T17:34:26.540Z,97954.50
2022-08-03T17:37:05.100Z,97952.84
2022-08-03T17:39:58.085Z,97952.66
2022-08-03T17:42:31.368Z,97954.91
2022-08-03T17:45:06.740Z,97962.03
2022-08-03T17:47:42.370Z,97966.00
2022-08-03T17:50:24.875Z,97957.34
2022-08-03T17:53:07.106Z,97962.38
2022-08-03T17:55:54.862Z,97969.13
2022-08-03T17:58:41.479Z,97968.84
2022-08-03T18:02:00.117Z,97975.97
2022-08-03T18:04:30.771Z,97982.59
2022-08-03T18:07:11.909Z,97971.56
2022-08-03T18:10:05.690Z,97973.72
2022-08-03T18:12:51.810Z,97985.09
2022-08-03T18:15:31.973Z,97985.19
2022-08-03T18:18:10.784Z,97982.69
2022-08-03T18:20:45.467Z,97984.69
2022-08-03T18:23:24.605Z,97988.97
2022-08-03T18:26:07.838Z,97989.63
2022-08-03T18:28:43.070Z,97996.94
2022-08-03T18:31:59.648Z,97994.47
2022-08-03T18:34:18.877Z,97999.47
2022-08-03T18:36:58.142Z,97998.03
2022-08-03T18:39:29.594Z,98000.13
2022-08-03T18:41:59.866Z,97995.88
2022-08-03T18:44:45.686Z,98000.72
2022-08-03T18:48:02.187Z,98005.91
2022-08-03T18:50:46.502Z,98004.09
2022-08-03T18:54:03.097Z,98007.28
2022-08-03T18:56:35.233Z,98017.50
2022-08-03T18:59:15.769Z,98013.94
2022-08-03T19:01:59.875Z,98011.78
2022-08-03T19:04:35.388Z,98018.91
2022-08-03T19:07:09.208Z,98023.03
2022-08-03T19:09:49.774Z,98023.22
2022-08-03T19:12:28.219Z,98023.44
2022-08-03T19:15:10.442Z,98036.81
2022-08-03T19:17:50.220Z,98037.25
2022-08-03T19:20:25.309Z,98038.22
2022-08-03T19:22:57.572Z,98038.34
2022-08-03T19:25:34.876Z,98037.88
2022-08-03T19:28:07.353Z,98042.34
2022-08-03T19:30:40.668Z,98043.53
2022-08-03T19:33:18.529Z,98045.78
2022-08-03T19:35:51.580Z,98043.63
2022-08-03T19:38:27.507Z,98045.34
2022-08-03T19:41:09.534Z,98047.56
2022-08-03T19:43:57.536Z,98047.00
2022-08-03T19:46:31.740Z,98050.03
2022-08-03T19:49:14.960Z,98049.22
2022-08-03T19:52:00.808Z,98054.09
2022-08-03T19:54:53.290Z,98057.06
2022-08-03T19:57:28.243Z,98048.31
2022-08-03T19:59:58.962Z,98047.44
2022-08-03T20:02:34.522Z,98050.09
2022-08-03T20:05:03.624Z,98056.31
2022-08-03T20:07:35.685Z,98052.69
2022-08-03T20:10:08.871Z,98053.75
2022-08-03T20:12:43.395Z,98051.22
2022-08-03T20:15:12.998Z,98056.84
2022-08-03T20:17:55.180Z,98052.41
2022-08-03T20:20:29.550Z,98054.50
2022-08-03T20:23:07.239Z,98060.97
2022-08-03T20:25:48.586Z,98072.88
2022-08-03T20:28:32.807Z,98059.38
2022-08-03T20:31:02.303Z,98066.13
2022-08-03T20:33:46.572Z,98060.06
2022-08-03T20:36:21.442Z,98062.78
2022-08-03T20:38:51.990Z,98067.59
2022-08-03T20:41:23.899Z,98063.72
2022-08-03T20:43:54.523Z,98068.50
2022-08-03T20:46:31.963Z,98055.38
2022-08-03T20:49:09.822Z,98058.81
2022-08-03T20:51:50.627Z,98055.13
2022-08-03T20:54:29.856Z,98052.03
2022-08-03T20:57:07.155Z,98061.47
2022-08-03T20:59:50.286Z,98060.28
2022-08-03T21:02:28.781Z,98060.19
2022-08-03T21:05:08.524Z,98062.53
2022-08-03T21:08:05.369Z,98066.53
2022-08-03T21:10:42.069Z,98062.59
2022-08-03T21:16:11.205Z,98064.25
2022-08-03T21:18:49.931Z,98068.22
2022-08-03T21:21:21.816Z,98067.00
2022-08-03T21:23:53.114Z,98066.94
2022-08-03T21:26:24.630Z,98067.09
2022-08-03T21:29:05.022Z,98069.41
2022-08-03T21:31:35.687Z,98067.94
2022-08-03T21:34:06.735Z,98078.13
2022-08-03T21:36:38.665Z,98074.78
2022-08-03T21:39:11.011Z,98073.81
2022-08-03T21:41:41.517Z,98078.56
2022-08-03T21:44:10.493Z,98080.63
2022-08-03T21:46:42.369Z,98075.63
2022-08-03T21:50:04.347Z,98078.72
2022-08-03T21:52:06.441Z,98076.41
2022-08-03T21:54:38.106Z,98074.66
2022-08-03T21:57:18.681Z,98078.00
2022-08-03T21:59:55.638Z,98074.84
2022-08-03T22:02:32.095Z,98080.38
2022-08-03T22:05:05.097Z,98086.44
2022-08-03T22:07:34.680Z,98077.88
2022-08-03T22:10:07.468Z,98079.06
2022-08-03T22:12:36.994Z,98091.09
2022-08-03T22:15:11.086Z,98085.22
2022-08-03T22:17:53.994Z,98080.16
2022-08-03T22:20:25.617Z,98081.38
2022-08-03T22:22:57.677Z,98093.41
2022-08-03T22:25:29.866Z,98087.63
2022-08-03T22:28:01.502Z,98091.47
2022-08-03T22:30:31.513Z,98098.91
2022-08-03T22:33:04.781Z,98095.72
2022-08-03T22:35:47.611Z,98091.47
2022-08-03T22:38:19.370Z,98100.78
2022-08-03T22:40:50.893Z,98105.47
2022-08-03T22:43:25.163Z,98112.06
2022-08-03T22:46:09.291Z,98106.50
2022-08-03T22:48:42.645Z,98116.63
2022-08-03T22:51:11.855Z,98113.19
2022-08-03T22:53:41.719Z,98113.53
2022-08-03T22:56:11.243Z,98109.00
2022-08-03T22:58:40.121Z,98112.63
2022-08-03T23:01:12.512Z,98107.06
2022-08-03T23:04:00.897Z,98115.53
2022-08-03T23:06:36.636Z,98118.09
2022-08-03T23:09:10.228Z,98112.78
2022-08-03T23:11:45.825Z,98111.78
2022-08-03T23:14:17.199Z,98121.66
2022-08-03T23:16:48.434Z,98123.41
2022-08-03T23:19:25.421Z,98118.91
2022-08-03T23:22:02.556Z,98119.78
2022-08-03T23:24:37.920Z,98121.75
2022-08-03T23:27:09.142Z,98123.50
2022-08-03T23:29:40.309Z,98117.06
2022-08-03T23:32:10.645Z,98116.94
2022-08-03T23:35:00.668Z,98115.97
2022-08-03T23:37:30.102Z,98121.44
2022-08-03T23:40:00.290Z,98126.47
2022-08-03T23:42:30.071Z,98130.88
2022-08-03T23:45:05.982Z,98130.72
2022-08-03T23:47:46.998Z,98128.09
2022-08-03T23:50:19.167Z,98126.06
2022-08-03T23:53:12.978Z,98125.28
2022-08-03T23:55:57.057Z,98126.78
2022-08-03T23:58:56.288Z,98128.50
